Time;durP1;ratioP1;P1;durP2;ratioP2;P2;SDS_P1;SDS_P2;PMS_P1;PMS_P2;Temp;Humidity;BMP_temperature;BMP_pressure;BME280_temperature;BME280_humidity;BME280_pressure;Samples;Min_cycle;Max_cycle;Signal;HPM_P1;HPM_P2
2023/06/12 00:01:46;;;;;;;4.60;4.20;;;26.00;51.90;;;;;;5053438;28;20301;-69
2023/06/12 00:04:12;;;;;;;4.72;4.32;;;26.00;51.90;;;;;;5053132;28;20197;-70
2023/06/12 00:06:37;;;;;;;4.55;4.18;;;26.00;51.90;;;;;;5052447;28;20634;-70
2023/06/12 00:09:04;;;;;;;4.60;4.20;;;26.00;51.90;;;;;;5053303;28;20660;-68
2023/06/12 00:11:29;;;;;;;3.97;3.67;;;26.00;51.90;;;;;;5052999;28;20175;-68
2023/06/12 00:13:55;;;;;;;4.68;4.22;;;26.00;51.90;;;;;;5052362;28;20182;-67
2023/06/12 00:16:21;;;;;;;3.88;3.58;;;25.90;51.80;;;;;;5052732;28;20198;-68
2023/06/12 00:18:48;;;;;;;4.50;4.10;;;25.90;51.80;;;;;;5052983;28;20187;-68
2023/06/12 00:21:14;;;;;;;4.13;3.78;;;25.90;51.80;;;;;;5051859;28;20175;-68
2023/06/12 00:23:40;;;;;;;4.40;4.00;;;25.90;51.80;;;;;;5053144;28;20629;-68
2023/06/12 00:26:05;;;;;;;4.30;4.00;;;25.90;51.80;;;;;;5053113;28;20179;-67
2023/06/12 00:28:31;;;;;;;4.20;3.90;;;25.90;51.80;;;;;;5051894;28;20521;-68
2023/06/12 00:30:56;;;;;;;4.53;4.13;;;25.90;51.80;;;;;;5052883;28;20190;-68
2023/06/12 00:33:22;;;;;;;4.00;3.70;;;25.90;51.80;;;;;;5052356;28;20701;-69
2023/06/12 00:35:48;;;;;;;4.15;3.80;;;25.90;51.70;;;;;;5051849;28;20270;-69
2023/06/12 00:38:14;;;;;;;3.78;3.47;;;25.90;51.80;;;;;;5052588;28;20183;-68
2023/06/12 00:40:40;;;;;;;4.13;3.83;;;25.90;51.70;;;;;;5052187;28;20167;-68
2023/06/12 00:43:05;;;;;;;4.72;4.28;;;25.90;51.60;;;;;;5052915;28;20171;-68
2023/06/12 00:45:31;;;;;;;3.80;3.50;;;25.90;51.70;;;;;;5052452;28;20175;-68
2023/06/12 00:47:57;;;;;;;4.15;3.85;;;25.90;51.70;;;;;;5052027;28;20534;-68
2023/06/12 00:50:28;;;;;;;3.90;3.60;;;25.90;51.60;;;;;;5052258;28;20171;-68
2023/06/12 00:52:55;;;;;;;3.90;3.60;;;25.90;51.70;;;;;;5052623;28;20647;-68
2023/06/12 00:55:21;;;;;;;4.15;3.85;;;25.80;51.60;;;;;;5051555;28;20635;-68
2023/06/12 00:57:47;;;;;;;4.10;3.80;;;25.80;51.60;;;;;;5052832;28;20226;-69
2023/06/12 01:00:14;;;;;;;4.03;3.72;;;25.80;51.60;;;;;;5052498;28;20385;-70
2023/06/12 01:02:42;;;;;;;4.35;3.95;;;25.80;51.50;;;;;;5051858;28;20634;-69
2023/06/12 01:05:12;;;;;;;4.10;3.80;;;25.80;51.50;;;;;;5034686;28;20179;-69
2023/06/12 01:07:55;;;;;;;4.10;3.80;;;25.80;51.50;;;;;;5052601;28;20179;-68
2023/06/12 01:10:30;;;;;;;4.13;3.58;;;25.80;51.60;;;;;;5051572;28;20179;-68
2023/06/12 01:12:55;;;;;;;4.20;3.90;;;25.80;51.60;;;;;;5052522;28;20181;-68
2023/06/12 01:15:21;;;;;;;4.28;3.97;;;25.80;51.50;;;;;;5034493;28;20176;-69
2023/06/12 01:17:46;;;;;;;3.85;3.55;;;25.80;51.50;;;;;;5051628;28;20237;-68
2023/06/12 01:20:12;;;;;;;3.85;3.55;;;25.80;51.60;;;;;;5052020;28;20171;-68
2023/06/12 01:23:05;;;;;;;3.78;3.47;;;25.80;51.50;;;;;;5052515;28;20179;-68
2023/06/12 01:25:49;;;;;;;4.10;3.80;;;25.80;51.60;;;;;;5050999;28;20195;-68
2023/06/12 01:28:51;;;;;;;4.10;3.70;;;25.80;51.50;;;;;;5051971;28;20650;-68
2023/06/12 01:31:28;;;;;;;4.20;3.90;;;25.80;51.50;;;;;;5044128;28;20605;-69
2023/06/12 01:34:02;;;;;;;4.32;4.03;;;25.80;51.50;;;;;;5051000;28;20174;-70
2023/06/12 01:36:28;;;;;;;4.40;3.83;;;25.70;51.40;;;;;;5050580;28;20238;-70
2023/06/12 01:38:57;;;;;;;3.80;3.50;;;25.80;51.50;;;;;;5034055;28;20224;-68
2023/06/12 01:41:25;;;;;;;4.03;3.72;;;25.80;51.40;;;;;;5050856;28;20261;-69
2023/06/12 01:43:50;;;;;;;4.03;3.72;;;25.70;51.40;;;;;;5053328;28;20179;-68
2023/06/12 01:46:16;;;;;;;3.80;3.50;;;25.70;51.30;;;;;;5054890;28;20186;-68
2023/06/12 01:48:41;;;;;;;4.03;3.72;;;25.70;51.40;;;;;;5055746;28;20175;-68
2023/06/12 01:51:07;;;;;;;3.90;3.50;;;25.70;51.30;;;;;;5055049;28;20179;-68
2023/06/12 01:53:32;;;;;;;4.50;4.10;;;25.70;51.30;;;;;;5055726;28;20547;-68
2023/06/12 01:55:58;;;;;;;3.88;3.58;;;25.70;51.30;;;;;;5055533;28;20641;-68
2023/06/12 01:58:23;;;;;;;3.90;3.60;;;25.70;51.40;;;;;;5054562;28;20179;-68
2023/06/12 02:00:49;;;;;;;4.05;3.65;;;25.70;51.30;;;;;;5055566;28;20186;-70
2023/06/12 02:03:14;;;;;;;3.90;3.60;;;25.70;51.40;;;;;;5055108;28;20380;-69
2023/06/12 02:05:40;;;;;;;3.88;3.58;;;25.70;51.30;;;;;;5054963;28;20171;-69
2023/06/12 02:08:05;;;;;;;3.65;3.35;;;25.70;51.30;;;;;;5055525;28;20242;-68
2023/06/12 02:10:31;;;;;;;4.05;3.75;;;25.70;51.20;;;;;;5054960;28;20202;-68
2023/06/12 02:12:56;;;;;;;4.03;3.72;;;25.70;51.20;;;;;;5054613;28;20262;-68
2023/06/12 02:15:22;;;;;;;4.20;3.75;;;25.70;51.10;;;;;;5054930;28;20229;-68
2023/06/12 02:17:47;;;;;;;4.00;3.70;;;25.70;51.10;;;;;;5055048;28;20199;-68
2023/06/12 02:20:13;;;;;;;3.78;3.47;;;25.70;51.10;;;;;;5054082;28;20181;-68
2023/06/12 02:22:38;;;;;;;4.57;4.15;;;25.70;51.10;;;;;;5055237;28;20237;-68
2023/06/12 02:25:04;;;;;;;4.28;3.88;;;25.60;51.00;;;;;;5055055;28;20705;-68
2023/06/12 02:27:30;;;;;;;4.80;3.97;;;25.60;51.60;;;;;;5054089;28;20266;-67
2023/06/12 02:29:55;;;;;;;3.92;3.53;;;25.60;50.90;;;;;;5054931;28;20596;-68
2023/06/12 02:32:21;;;;;;;4.00;3.70;;;25.60;50.90;;;;;;5054629;28;20626;-69
2023/06/12 02:34:47;;;;;;;3.80;3.50;;;25.60;50.90;;;;;;5054125;28;20179;-69
2023/06/12 02:37:12;;;;;;;4.15;3.85;;;25.70;50.90;;;;;;5054283;28;20245;-69
2023/06/12 02:39:38;;;;;;;3.78;3.47;;;25.60;50.80;;;;;;5054996;28;20225;-68
2023/06/12 02:42:04;;;;;;;3.85;3.55;;;25.60;50.90;;;;;;5054316;28;20183;-69
2023/06/12 02:44:29;;;;;;;3.83;3.60;;;25.60;50.80;;;;;;5054593;28;20186;-68
2023/06/12 02:46:59;;;;;;;4.88;4.07;;;25.60;50.80;;;;;;5054560;28;20170;-68
2023/06/12 02:49:26;;;;;;;3.97;3.67;;;25.60;50.80;;;;;;5053508;28;20240;-68
2023/06/12 02:51:51;;;;;;;4.18;3.88;;;25.60;50.80;;;;;;5054762;28;20175;-67
2023/06/12 02:54:18;;;;;;;4.07;3.67;;;25.60;50.90;;;;;;5053734;28;20186;-68
2023/06/12 02:56:46;;;;;;;3.70;3.40;;;25.60;50.80;;;;;;5054394;28;20674;-68
2023/06/12 02:59:16;;;;;;;4.18;3.88;;;25.60;50.80;;;;;;5054148;28;20179;-69
2023/06/12 03:01:45;;;;;;;4.15;3.85;;;25.60;50.80;;;;;;5053493;28;20321;-69
2023/06/12 03:04:19;;;;;;;4.20;3.80;;;25.60;50.80;;;;;;5054319;28;20177;-69
2023/06/12 03:06:45;;;;;;;4.18;3.78;;;25.60;50.80;;;;;;5054499;28;20179;-69
2023/06/12 03:09:10;;;;;;;3.70;3.40;;;25.50;50.80;;;;;;5053435;28;20171;-68
2023/06/12 03:11:36;;;;;;;3.72;3.42;;;25.60;50.90;;;;;;5054128;28;20540;-68
2023/06/12 03:14:02;;;;;;;3.60;3.30;;;25.50;50.90;;;;;;5054347;28;20167;-68
2023/06/12 03:16:30;;;;;;;4.38;4.05;;;25.60;50.80;;;;;;5052951;28;20571;-68
2023/06/12 03:18:56;;;;;;;4.30;3.90;;;25.50;50.80;;;;;;5053933;28;20182;-68
2023/06/12 03:21:21;;;;;;;3.95;3.63;;;25.50;50.80;;;;;;5053929;28;20233;-68
2023/06/12 03:23:47;;;;;;;3.70;3.40;;;25.60;50.90;;;;;;5053363;28;20171;-68
2023/06/12 03:26:12;;;;;;;3.55;3.33;;;25.50;50.80;;;;;;5053754;28;20249;-68
2023/06/12 03:28:38;;;;;;;4.50;3.55;;;25.50;50.80;;;;;;5054475;28;20266;-68
2023/06/12 03:31:03;;;;;;;3.80;3.50;;;25.50;50.70;;;;;;5053067;28;20250;-68
2023/06/12 03:33:29;;;;;;;3.47;3.28;;;25.50;50.80;;;;;;5052457;28;20246;-69
2023/06/12 03:35:55;;;;;;;4.10;3.80;;;25.50;50.80;;;;;;5053448;28;20219;-69
2023/06/12 03:38:20;;;;;;;3.63;3.33;;;25.50;50.80;;;;;;5052899;28;20174;-69
2023/06/12 03:40:46;;;;;;;3.75;3.45;;;25.50;50.90;;;;;;5053673;28;20212;-68
2023/06/12 03:43:11;;;;;;;3.55;3.33;;;25.50;50.80;;;;;;5053227;28;20175;-68
2023/06/12 03:45:37;;;;;;;4.07;3.78;;;25.50;50.90;;;;;;5052785;28;20171;-68
2023/06/12 03:48:03;;;;;;;3.78;3.33;;;25.50;50.80;;;;;;5053716;28;20175;-68
2023/06/12 03:50:29;;;;;;;3.80;3.58;;;25.50;50.90;;;;;;5053034;28;20262;-68
2023/06/12 03:52:54;;;;;;;3.67;3.40;;;25.50;50.80;;;;;;5052786;28;20274;-68
2023/06/12 03:55:20;;;;;;;3.55;3.15;;;25.50;50.80;;;;;;5035390;28;20225;-68
2023/06/12 03:57:46;;;;;;;3.75;3.45;;;25.50;50.80;;;;;;5052497;28;20229;-68
2023/06/12 04:00:12;;;;;;;4.53;3.65;;;25.50;50.80;;;;;;5052917;28;20650;-69
2023/06/12 04:02:38;;;;;;;3.67;3.38;;;25.50;50.80;;;;;;5053726;28;20179;-69
2023/06/12 04:05:04;;;;;;;3.95;3.65;;;25.50;50.70;;;;;;5051507;28;20175;-68
2023/06/12 04:07:29;;;;;;;3.45;3.25;;;25.50;50.70;;;;;;5052387;28;20595;-68
2023/06/12 04:09:55;;;;;;;3.90;3.45;;;25.60;51.40;;;;;;5053189;28;20232;-68
2023/06/12 04:12:20;;;;;;;3.80;3.50;;;25.50;50.70;;;;;;5052064;28;20764;-68
2023/06/12 04:14:46;;;;;;;3.95;3.65;;;25.50;50.70;;;;;;5052998;28;20220;-68
2023/06/12 04:17:12;;;;;;;3.70;3.40;;;25.50;50.60;;;;;;5052665;28;20254;-68
2023/06/12 04:19:38;;;;;;;3.90;3.60;;;25.50;50.60;;;;;;5052424;28;20646;-68
2023/06/12 04:22:05;;;;;;;4.20;3.90;;;25.50;50.60;;;;;;5053093;28;20178;-68
2023/06/12 04:24:32;;;;;;;3.95;3.65;;;25.60;50.70;;;;;;5052803;28;20205;-68
2023/06/12 04:27:01;;;;;;;4.20;3.85;;;25.60;50.60;;;;;;5052040;28;20167;-68
2023/06/12 04:29:31;;;;;;;3.45;3.20;;;25.60;50.60;;;;;;5052618;28;20187;-68
2023/06/12 04:31:58;;;;;;;3.78;3.45;;;25.60;50.60;;;;;;5052603;28;20638;-69
2023/06/12 04:34:24;;;;;;;3.88;3.58;;;25.50;50.50;;;;;;5051971;28;20186;-70
2023/06/12 04:36:52;;;;;;;3.70;3.40;;;25.60;50.50;;;;;;5052697;28;20285;-69
2023/06/12 04:39:19;;;;;;;3.85;3.55;;;25.60;50.50;;;;;;5052498;28;20177;-68
2023/06/12 04:41:47;;;;;;;3.80;3.35;;;25.60;50.50;;;;;;5052017;28;20261;-68
2023/06/12 04:44:13;;;;;;;3.80;3.50;;;25.60;50.50;;;;;;5052631;28;20185;-68
2023/06/12 04:46:39;;;;;;;4.00;3.70;;;25.60;50.50;;;;;;5052886;28;20258;-69
2023/06/12 04:49:05;;;;;;;3.60;3.30;;;25.60;50.40;;;;;;5052075;28;20692;-68
2023/06/12 04:51:31;;;;;;;3.78;3.47;;;25.60;50.50;;;;;;5052357;28;20170;-68
2023/06/12 04:53:57;;;;;;;4.13;3.70;;;25.60;50.40;;;;;;5051976;28;20179;-67
2023/06/12 04:56:22;;;;;;;3.70;3.40;;;25.60;50.40;;;;;;5052102;28;20608;-68
2023/06/12 04:58:49;;;;;;;3.70;3.40;;;25.60;50.40;;;;;;5052705;28;20201;-69
2023/06/12 05:01:17;;;;;;;3.63;3.25;;;25.60;50.30;;;;;;5051699;28;20167;-69
2023/06/12 05:03:43;;;;;;;3.58;3.28;;;25.60;50.30;;;;;;5052649;28;20253;-70
2023/06/12 05:06:08;;;;;;;3.72;3.42;;;25.60;50.30;;;;;;5052283;28;20623;-69
2023/06/12 05:08:36;;;;;;;4.10;3.80;;;25.60;50.30;;;;;;5051505;28;20186;-68
2023/06/12 05:11:02;;;;;;;4.07;3.72;;;25.60;50.30;;;;;;5052436;28;20186;-68
2023/06/12 05:13:27;;;;;;;3.90;3.60;;;25.60;50.30;;;;;;5052353;28;20591;-68
2023/06/12 05:15:53;;;;;;;4.00;3.70;;;25.60;50.30;;;;;;5051711;28;20190;-68
2023/06/12 05:18:18;;;;;;;4.00;3.55;;;25.60;50.30;;;;;;5052342;28;20274;-68
2023/06/12 05:20:44;;;;;;;3.80;3.47;;;25.60;50.30;;;;;;5056286;28;20266;-68
2023/06/12 05:23:09;;;;;;;3.78;3.40;;;25.60;50.30;;;;;;5055213;28;20197;-68
2023/06/12 05:25:35;;;;;;;4.07;3.78;;;25.60;50.30;;;;;;5056273;28;20649;-68
2023/06/12 05:28:01;;;;;;;3.90;3.60;;;25.60;50.30;;;;;;5056218;28;20217;-68
2023/06/12 05:30:26;;;;;;;3.70;3.40;;;25.60;50.30;;;;;;5055284;28;20189;-69
2023/06/12 05:32:52;;;;;;;4.05;3.75;;;25.60;50.30;;;;;;5056210;28;20176;-69
2023/06/12 05:35:17;;;;;;;4.13;3.72;;;25.60;50.30;;;;;;5055832;28;20175;-70
2023/06/12 05:37:43;;;;;;;3.78;3.47;;;25.60;50.30;;;;;;5055094;28;20306;-69
2023/06/12 05:40:09;;;;;;;3.90;3.60;;;25.60;50.30;;;;;;5055777;28;20171;-69
2023/06/12 05:42:36;;;;;;;3.70;3.40;;;25.60;50.40;;;;;;5055933;28;20175;-68
2023/06/12 05:45:02;;;;;;;4.38;3.83;;;25.60;50.40;;;;;;5055248;28;20249;-68
2023/06/12 05:47:27;;;;;;;3.92;3.63;;;25.60;50.50;;;;;;5055541;28;20183;-68
2023/06/12 05:49:53;;;;;;;3.65;3.38;;;25.60;50.40;;;;;;5055651;28;20648;-68
2023/06/12 05:52:19;;;;;;;3.65;3.35;;;25.60;50.50;;;;;;5054612;28;20179;-68
2023/06/12 05:54:45;;;;;;;3.83;3.53;;;25.60;50.50;;;;;;5055524;28;20183;-68
2023/06/12 05:57:13;;;;;;;3.60;3.30;;;25.60;50.50;;;;;;5054544;28;20215;-68
2023/06/12 05:59:38;;;;;;;4.13;3.75;;;25.60;50.40;;;;;;5055526;28;20751;-70
2023/06/12 06:02:04;;;;;;;3.55;3.35;;;25.60;50.40;;;;;;5055557;28;20301;-69
2023/06/12 06:04:29;;;;;;;3.63;3.33;;;25.60;50.50;;;;;;5054419;28;20171;-71
2023/06/12 06:06:55;;;;;;;3.38;3.17;;;25.60;50.50;;;;;;5055333;28;20179;-69
2023/06/12 06:09:21;;;;;;;4.30;3.90;;;25.60;50.50;;;;;;5055169;28;20190;-69
2023/06/12 06:11:46;;;;;;;4.00;3.70;;;25.60;50.50;;;;;;5054579;28;20183;-69
2023/06/12 06:14:12;;;;;;;3.78;3.47;;;25.60;50.60;;;;;;5055040;28;20179;-68
2023/06/12 06:16:37;;;;;;;3.88;3.58;;;25.60;50.60;;;;;;5055243;28;20234;-69
2023/06/12 06:19:03;;;;;;;4.00;3.70;;;25.60;50.70;;;;;;5054479;28;20183;-69
2023/06/12 06:21:30;;;;;;;3.67;3.30;;;25.60;50.70;;;;;;5054653;28;20183;-68
2023/06/12 06:23:56;;;;;;;3.85;3.55;;;25.60;50.70;;;;;;5055256;28;20175;-68
2023/06/12 06:26:21;;;;;;;3.85;3.33;;;25.60;50.70;;;;;;5054183;28;20247;-68
2023/06/12 06:28:47;;;;;;;3.88;3.60;;;25.60;50.70;;;;;;5055066;28;20204;-68
2023/06/12 06:31:12;;;;;;;4.00;3.70;;;25.60;50.60;;;;;;5054288;28;20183;-70
2023/06/12 06:33:38;;;;;;;3.88;3.58;;;25.60;50.60;;;;;;5054267;28;20206;-70
2023/06/12 06:36:03;;;;;;;4.30;3.90;;;25.60;50.60;;;;;;5054583;28;20218;-69
2023/06/12 06:38:29;;;;;;;3.40;3.10;;;25.60;50.60;;;;;;5054509;28;20541;-70
2023/06/12 06:40:55;;;;;;;4.07;3.67;;;25.60;50.60;;;;;;5054278;28;20492;-69
2023/06/12 06:43:20;;;;;;;4.15;3.75;;;25.60;50.50;;;;;;5054505;28;20580;-68
2023/06/12 06:45:46;;;;;;;3.72;3.42;;;25.70;50.60;;;;;;5054863;28;20685;-68
2023/06/12 06:48:12;;;;;;;4.20;3.67;;;25.70;50.50;;;;;;5053723;28;20171;-68
2023/06/12 06:50:38;;;;;;;3.80;3.50;;;25.70;50.60;;;;;;5054535;28;20183;-68
2023/06/12 06:53:03;;;;;;;4.07;3.67;;;25.70;50.60;;;;;;5054496;28;20707;-67
2023/06/12 06:55:29;;;;;;;4.00;3.60;;;25.70;50.60;;;;;;5053682;28;20648;-68
2023/06/12 06:57:55;;;;;;;3.97;3.67;;;25.70;50.60;;;;;;5054496;28;20725;-68
2023/06/12 07:00:21;;;;;;;4.05;3.75;;;25.70;50.50;;;;;;5053938;28;20232;-70
2023/06/12 07:02:47;;;;;;;3.50;3.20;;;25.70;50.50;;;;;;5053754;28;20186;-69
2023/06/12 07:05:14;;;;;;;3.60;3.33;;;25.70;50.50;;;;;;5053987;28;20217;-69
2023/06/12 07:07:40;;;;;;;4.40;4.10;;;25.70;50.40;;;;;;5053387;28;20186;-68
2023/06/12 07:10:06;;;;;;;3.90;3.53;;;25.80;50.50;;;;;;5054371;28;20175;-68
2023/06/12 07:12:33;;;;;;;4.68;3.85;;;25.70;50.30;;;;;;5054037;28;20190;-68
2023/06/12 07:14:58;;;;;;;3.92;3.63;;;25.70;50.30;;;;;;5053413;28;20187;-69
2023/06/12 07:17:24;;;;;;;3.65;3.35;;;25.70;50.30;;;;;;5053888;28;20539;-67
2023/06/12 07:19:50;;;;;;;4.38;4.00;;;25.80;50.20;;;;;;5053878;28;20507;-67
2023/06/12 07:22:15;;;;;;;5.18;3.70;;;25.80;50.20;;;;;;5053041;28;20649;-67
2023/06/12 07:24:41;;;;;;;4.50;4.07;;;25.80;50.50;;;;;;5054072;28;20178;-67
2023/06/12 07:27:07;;;;;;;4.60;3.63;;;25.80;50.40;;;;;;5053789;28;20179;-67
2023/06/12 07:29:32;;;;;;;4.55;4.07;;;25.90;50.50;;;;;;5053126;28;20584;-68
2023/06/12 07:31:58;;;;;;;4.50;4.10;;;25.80;50.40;;;;;;5053940;28;20540;-68
2023/06/12 07:34:23;;;;;;;6.35;4.30;;;25.80;50.40;;;;;;5053664;28;20556;-68
2023/06/12 07:36:49;;;;;;;4.63;4.15;;;25.80;50.30;;;;;;5052585;28;20708;-69
2023/06/12 07:39:14;;;;;;;4.35;4.00;;;25.80;50.30;;;;;;5053490;28;20236;-68
2023/06/12 07:41:42;;;;;;;5.13;3.70;;;25.90;50.50;;;;;;5053026;28;20689;-68
2023/06/12 07:44:08;;;;;;;5.95;4.68;;;25.90;50.50;;;;;;5052671;28;20265;-68
2023/06/12 07:46:34;;;;;;;7.20;4.32;;;25.90;50.50;;;;;;5053495;28;20226;-67
2023/06/12 07:48:59;;;;;;;4.20;3.78;;;25.90;50.50;;;;;;5053479;28;20302;-67
2023/06/12 07:51:25;;;;;;;5.13;4.00;;;25.90;50.40;;;;;;5052510;28;20662;-67
2023/06/12 07:53:51;;;;;;;5.00;4.18;;;25.90;50.40;;;;;;5053538;28;20167;-67
2023/06/12 07:56:17;;;;;;;3.40;3.10;;;25.90;50.30;;;;;;5053193;28;20637;-67
2023/06/12 07:58:43;;;;;;;4.47;4.07;;;25.90;50.40;;;;;;5052654;28;20533;-68
2023/06/12 08:01:10;;;;;;;4.35;3.88;;;26.00;50.50;;;;;;5053176;28;20167;-69
2023/06/12 08:03:39;;;;;;;3.85;3.55;;;26.00;50.40;;;;;;5053168;28;20178;-68
2023/06/12 08:06:11;;;;;;;4.20;3.75;;;26.00;50.50;;;;;;5052477;28;20635;-68
2023/06/12 08:08:46;;;;;;;4.70;4.20;;;26.00;50.60;;;;;;5053084;28;20646;-68
2023/06/12 08:11:12;;;;;;;3.67;3.38;;;26.00;50.40;;;;;;5052205;28;20177;-68
2023/06/12 08:13:38;;;;;;;6.00;4.05;;;26.00;50.40;;;;;;5052906;28;20174;-67
2023/06/12 08:16:03;;;;;;;4.63;4.20;;;26.00;50.50;;;;;;5052901;28;20183;-68
2023/06/12 08:18:29;;;;;;;5.55;4.20;;;26.00;50.40;;;;;;5051861;28;20201;-67
2023/06/12 08:20:54;;;;;;;3.70;3.40;;;26.10;50.40;;;;;;5052830;28;20171;-68
2023/06/12 08:23:20;;;;;;;4.43;4.03;;;26.10;50.50;;;;;;5052640;28;20181;-67
2023/06/12 08:25:46;;;;;;;4.00;3.70;;;26.10;50.50;;;;;;5052171;28;20171;-67
2023/06/12 08:28:11;;;;;;;3.88;3.58;;;26.10;50.50;;;;;;5052712;28;20173;-67
2023/06/12 08:30:37;;;;;;;3.83;3.53;;;26.10;50.50;;;;;;5052831;28;20520;-68
2023/06/12 08:33:03;;;;;;;4.55;3.83;;;26.10;50.50;;;;;;5052057;28;20179;-69
2023/06/12 08:35:29;;;;;;;3.95;3.65;;;26.10;50.50;;;;;;5052719;28;20717;-69
2023/06/12 08:37:54;;;;;;;4.18;3.78;;;26.10;50.50;;;;;;5052605;28;20615;-68
2023/06/12 08:40:20;;;;;;;5.13;3.90;;;26.10;50.50;;;;;;5051877;28;20178;-68
2023/06/12 08:42:50;;;;;;;5.35;3.83;;;26.10;50.50;;;;;;5052736;28;20179;-67
2023/06/12 08:45:16;;;;;;;4.55;3.42;;;26.10;50.50;;;;;;5052325;28;20175;-68
2023/06/12 08:47:42;;;;;;;5.13;3.80;;;26.10;50.50;;;;;;5051951;28;20268;-67
2023/06/12 08:50:08;;;;;;;3.75;3.45;;;26.20;50.60;;;;;;5034863;28;20217;-67
2023/06/12 08:52:33;;;;;;;4.80;4.40;;;26.20;50.60;;;;;;5052219;28;20210;-67
2023/06/12 08:54:59;;;;;;;4.45;4.05;;;26.20;50.60;;;;;;5054840;28;20171;-67
2023/06/12 08:57:25;;;;;;;5.38;3.47;;;26.20;50.50;;;;;;5055116;28;20206;-68
2023/06/12 08:59:50;;;;;;;4.88;3.70;;;26.20;50.50;;;;;;5055566;28;20171;-69
2023/06/12 09:02:16;;;;;;;4.10;3.80;;;26.20;50.50;;;;;;5054357;28;20630;-68
2023/06/12 09:04:44;;;;;;;4.15;3.85;;;26.30;50.60;;;;;;5055576;28;20179;-68
2023/06/12 09:07:11;;;;;;;4.22;3.92;;;26.30;50.60;;;;;;5055657;28;20177;-68
2023/06/12 09:09:40;;;;;;;4.35;3.95;;;26.30;50.60;;;;;;5055495;28;20176;-68
2023/06/12 09:12:08;;;;;;;4.18;3.88;;;26.30;50.60;;;;;;5056576;28;20183;-68
2023/06/12 09:14:35;;;;;;;4.45;4.05;;;26.30;50.50;;;;;;5055605;28;20249;-68
2023/06/12 09:17:04;;;;;;;5.10;4.15;;;26.30;50.80;;;;;;5055415;28;20765;-68
2023/06/12 09:19:40;;;;;;;5.25;3.80;;;26.30;50.70;;;;;;5055706;28;20642;-68
2023/06/12 09:22:06;;;;;;;8.68;3.90;;;26.30;51.30;;;;;;5055199;28;20213;-67
2023/06/12 09:24:32;;;;;;;5.95;4.15;;;26.30;50.80;;;;;;5054445;28;20202;-68
2023/06/12 09:26:57;;;;;;;5.03;4.00;;;26.40;50.90;;;;;;5055845;28;20179;-67
2023/06/12 09:29:30;;;;;;;9.82;4.25;;;26.40;50.90;;;;;;5055407;28;20569;-68
2023/06/12 09:31:58;;;;;;;5.18;4.15;;;26.40;51.00;;;;;;5055265;28;20175;-68
2023/06/12 09:34:24;;;;;;;7.57;4.78;;;26.40;51.00;;;;;;5052850;28;20183;-68
2023/06/12 09:36:50;;;;;;;6.97;4.38;;;26.50;51.20;;;;;;5054486;28;20230;-69
2023/06/12 09:39:15;;;;;;;5.15;3.83;;;26.50;51.20;;;;;;5054959;28;20211;-68
2023/06/12 09:41:50;;;;;;;4.28;3.88;;;26.50;51.20;;;;;;5054145;28;20182;-68
2023/06/12 09:44:20;;;;;;;6.45;3.78;;;26.50;51.10;;;;;;5054365;28;20170;-67
2023/06/12 09:46:46;;;;;;;5.90;4.07;;;26.50;51.10;;;;;;5055391;28;20202;-68
2023/06/12 09:49:13;;;;;;;5.45;4.60;;;26.60;51.10;;;;;;5054887;28;20610;-67
2023/06/12 09:51:40;;;;;;;6.65;4.00;;;26.60;51.10;;;;;;5055074;28;20295;-67
2023/06/12 09:54:06;;;;;;;4.63;4.22;;;26.60;51.10;;;;;;5054013;28;20175;-67
2023/06/12 09:56:31;;;;;;;4.18;3.88;;;26.60;51.10;;;;;;5053169;28;20775;-67
2023/06/12 09:58:57;;;;;;;4.50;4.10;;;26.60;51.00;;;;;;5054185;28;20511;-68
2023/06/12 10:01:25;;;;;;;5.13;4.40;;;26.60;51.00;;;;;;5053677;28;20665;-68
2023/06/12 10:03:53;;;;;;;5.05;4.03;;;26.60;51.00;;;;;;5053291;28;20171;-68
2023/06/12 10:06:18;;;;;;;7.40;4.70;;;26.60;51.00;;;;;;5052882;28;20178;-68
2023/06/12 10:08:44;;;;;;;6.03;4.35;;;26.60;51.00;;;;;;5054569;28;20580;-67
2023/06/12 10:11:10;;;;;;;4.25;3.85;;;26.70;51.00;;;;;;5054337;28;20575;-65
2023/06/12 10:13:35;;;;;;;4.43;4.03;;;26.70;51.00;;;;;;5054217;28;20233;-68
2023/06/12 10:16:01;;;;;;;5.22;4.53;;;26.70;51.00;;;;;;5055297;28;20167;-67
2023/06/12 10:18:28;;;;;;;7.22;4.60;;;26.70;51.00;;;;;;5054103;28;20219;-65
2023/06/12 10:20:53;;;;;;;6.38;4.13;;;26.70;51.00;;;;;;5055115;28;20175;-67
2023/06/12 10:23:19;;;;;;;5.53;4.25;;;26.70;50.90;;;;;;5054673;28;20263;-67
2023/06/12 10:25:45;;;;;;;4.63;4.22;;;26.70;50.90;;;;;;5053184;28;20183;-66
2023/06/12 10:28:11;;;;;;;5.72;4.53;;;26.70;50.90;;;;;;5053747;28;20175;-67
2023/06/12 10:30:36;;;;;;;5.95;4.40;;;26.70;50.80;;;;;;5054575;28;20653;-68
2023/06/12 10:33:08;;;;;;;4.93;4.40;;;26.70;50.70;;;;;;5054135;28;20175;-68
2023/06/12 10:35:33;;;;;;;8.32;4.72;;;26.80;50.70;;;;;;5054009;28;20417;-59
2023/06/12 10:37:59;;;;;;;6.85;4.72;;;26.70;50.70;;;;;;5054581;28;20597;-59
2023/06/12 10:40:25;;;;;;;13.50;5.85;;;26.70;50.80;;;;;;5053907;28;20182;-59
2023/06/12 10:42:53;;;;;;;7.40;4.57;;;26.70;50.90;;;;;;5054956;28;20209;-59
2023/06/12 10:45:25;;;;;;;9.00;4.38;;;26.70;51.00;;;;;;5054425;28;20182;-60
2023/06/12 10:48:19;;;;;;;6.70;4.75;;;26.70;50.90;;;;;;5054012;28;20329;-60
2023/06/12 10:50:48;;;;;;;6.80;4.43;;;26.70;50.90;;;;;;5049744;28;20183;-60
2023/06/12 10:53:20;;;;;;;9.48;4.53;;;26.70;50.90;;;;;;5053720;28;20539;-59
2023/06/12 10:55:46;;;;;;;7.30;4.10;;;26.70;50.90;;;;;;5054641;28;20171;-59
2023/06/12 10:58:19;;;;;;;5.80;4.43;;;26.70;50.90;;;;;;5054157;28;20688;-59
2023/06/12 11:00:48;;;;;;;6.78;4.60;;;26.80;51.10;;;;;;5053676;28;20211;-59
2023/06/12 11:03:18;;;;;;;9.00;4.50;;;26.80;51.10;;;;;;5054234;28;20175;-59
2023/06/12 11:05:54;;;;;;;8.82;4.78;;;26.80;51.10;;;;;;5054588;28;20259;-59
2023/06/12 11:08:20;;;;;;;8.73;4.30;;;26.80;51.10;;;;;;5053330;28;20170;-58
2023/06/12 11:10:45;;;;;;;5.13;4.47;;;26.80;51.10;;;;;;5054155;28;20175;-57
2023/06/12 11:13:11;;;;;;;7.05;4.82;;;26.80;51.10;;;;;;5053872;28;20174;-58
2023/06/12 11:15:44;;;;;;;9.35;4.95;;;26.80;51.00;;;;;;5052905;28;20175;-58
2023/06/12 11:18:10;;;;;;;7.32;4.60;;;26.90;50.90;;;;;;5053453;28;20284;-59
2023/06/12 11:20:36;;;;;;;8.15;4.90;;;26.90;50.80;;;;;;5054094;28;20634;-59
2023/06/12 11:23:01;;;;;;;8.75;4.53;;;26.90;50.80;;;;;;5053542;28;20171;-58
2023/06/12 11:25:47;;;;;;;5.40;4.50;;;26.90;50.80;;;;;;5053695;28;20609;-59
2023/06/12 11:28:13;;;;;;;6.45;4.40;;;26.90;50.70;;;;;;5052639;28;20645;-59
2023/06/12 11:30:42;;;;;;;5.60;5.00;;;26.90;50.70;;;;;;5053937;28;20186;-59
2023/06/12 11:33:08;;;;;;;11.25;4.80;;;26.90;50.70;;;;;;5053541;28;20179;-59
2023/06/12 11:35:44;;;;;;;14.20;5.72;;;26.90;50.70;;;;;;5052734;28;20262;-58
2023/06/12 11:38:14;;;;;;;6.60;4.68;;;26.90;50.70;;;;;;5053374;28;20356;-59
2023/06/12 11:40:40;;;;;;;5.57;4.47;;;26.90;50.50;;;;;;5053694;28;20167;-59
2023/06/12 11:43:06;;;;;;;6.88;4.70;;;26.90;50.40;;;;;;5052856;28;20646;-59
2023/06/12 11:45:31;;;;;;;6.03;5.00;;;26.90;50.40;;;;;;5053634;28;20210;-59
2023/06/12 11:47:57;;;;;;;7.43;4.90;;;26.90;50.40;;;;;;5053416;28;20175;-59
2023/06/12 11:50:23;;;;;;;4.95;4.45;;;26.90;50.30;;;;;;5051357;28;20186;-59
2023/06/12 11:52:48;;;;;;;7.75;4.22;;;26.90;50.30;;;;;;5052205;28;20590;-58
2023/06/12 11:55:17;;;;;;;8.23;4.93;;;26.90;50.30;;;;;;5052903;28;20179;-59
2023/06/12 11:57:49;;;;;;;5.18;4.65;;;26.80;50.40;;;;;;5052460;28;20696;-59
2023/06/12 12:00:19;;;;;;;5.40;4.25;;;26.90;50.50;;;;;;5053047;28;20194;-58
2023/06/12 12:02:49;;;;;;;6.45;4.50;;;26.90;50.70;;;;;;5053326;28;20179;-59
2023/06/12 12:05:17;;;;;;;7.47;5.13;;;26.90;50.70;;;;;;5052414;28;20175;-59
2023/06/12 12:07:45;;;;;;;8.48;5.30;;;27.00;50.90;;;;;;5053475;28;20503;-59
2023/06/12 12:10:13;;;;;;;5.50;4.95;;;27.00;50.60;;;;;;5052439;28;20186;-58
2023/06/12 12:12:58;;;;;;;5.43;4.50;;;27.00;50.80;;;;;;5053319;28;20186;-59
2023/06/12 12:15:23;;;;;;;5.20;4.75;;;27.00;50.70;;;;;;5052759;28;20547;-59
2023/06/12 12:17:49;;;;;;;7.68;5.13;;;27.00;50.60;;;;;;5052213;28;20658;-59
2023/06/12 12:20:20;;;;;;;5.85;5.03;;;27.00;50.50;;;;;;5052591;28;20179;-59
2023/06/12 12:22:47;;;;;;;5.28;4.47;;;27.00;50.60;;;;;;5053108;28;20183;-59
2023/06/12 12:25:31;;;;;;;6.43;4.57;;;27.00;50.60;;;;;;5051924;28;20199;-59
2023/06/12 12:27:59;;;;;;;5.18;4.63;;;27.00;50.60;;;;;;5052479;28;20228;-59
2023/06/12 12:30:25;;;;;;;7.22;4.90;;;27.00;50.40;;;;;;5052348;28;20183;-59
2023/06/12 12:32:52;;;;;;;5.22;4.40;;;27.00;50.40;;;;;;5052312;28;20179;-59
2023/06/12 12:35:18;;;;;;;5.45;4.07;;;27.00;50.30;;;;;;5052423;28;20690;-60
2023/06/12 12:37:45;;;;;;;6.07;4.55;;;27.00;50.30;;;;;;5052388;28;20333;-59
2023/06/12 12:40:11;;;;;;;6.15;4.53;;;27.00;50.10;;;;;;5051836;28;20609;-59
2023/06/12 12:42:38;;;;;;;5.07;4.50;;;27.00;50.10;;;;;;5052393;28;20177;-59
2023/06/12 12:45:04;;;;;;;6.55;4.80;;;27.10;50.10;;;;;;5051971;28;20171;-59